Sunday, December 8, 2019, 8:35 PM GMT
Back to Local

CWFQ, Frelighsburg

Location: , , Canada Lat: 45.05
Local Time: 8:35 PM GMT (20:35 GMT) Lon: -72.833
Time Zone: GMT Elev: 498 ft

Show me the last for .
Show Decoded

2019-12-08 20:00 METAR CWFQ 082000Z AUTO 17008KT M01/M11 RMK AO1 SOG 06 8032 PK WND 20017/1947
                 SLP218 T10071112 =
2019-12-08 19:00 METAR CWFQ 081900Z AUTO 18006KT M02/M10 RMK AO1 SOG 07 6026 SLP234 T10151104 =
2019-12-08 18:00 METAR CWFQ 081800Z AUTO 19005KT M02/M10 RMK AO1 SOG 07 6031 SLP242 T10191101
                 50002 =
2019-12-08 17:00 METAR CWFQ 081700Z AUTO 19007G15KT M02/M12 RMK AO1 SOG 07 8026 PK WND 18017/1623
                 SLP251 T10241117 50002 =
2019-12-08 16:00 METAR CWFQ 081600Z AUTO 16006KT M05/M10 RMK AO1 SOG 07 8022 SLP262 T10471101
                 50002 =
2019-12-08 15:00 METAR CWFQ 081500Z AUTO 16005KT M07/M12 RMK AO1 SOG 06 6017 SLP275 T10671117
                 50002 =
2019-12-08 14:00 METAR CWFQ 081400Z AUTO 17005KT M08/M13 RMK AO1 SOG 06 7017 SLP280 T10821128
                 50002 =
2019-12-08 13:00 METAR CWFQ 081300Z AUTO 17004KT M10/M13 RMK AO1 2PAST HR SOG 06 8014 SLP286
                 P0001 T10981131 50002 =
2019-12-08 12:00 METAR CWFQ 081200Z AUTO 16006KT M11/M13 RMK AO1 SOG 06 8008 SLP293 T11111133 =
2019-12-08 11:00 METAR CWFQ 081100Z AUTO 16005KT M12/M14 RMK AO1 SOG 07 6010 SLP299 T11201139 =
2019-12-08 10:00 METAR CWFQ 081000Z AUTO 17004KT M11/M13 RMK AO1 SOG 07 8005 SLP301 T11081126 =
2019-12-08 09:00 METAR CWFQ 080900Z AUTO 16004KT M11/M13 RMK AO1 SOG 07 8004 SLP302 T11131128 =
2019-12-08 08:00 METAR CWFQ 080800Z AUTO 16003KT M11/M13 RMK AO1 SOG 07 3002 SLP308 T11141127 =
2019-12-08 07:00 METAR CWFQ 080700Z AUTO 15003KT M12/M13 RMK AO1 SOG 07 4000 SLP306 T11151130 =
2019-12-08 06:00 METAR CWFQ 080600Z AUTO 16003KT M11/M12 RMK AO1 SOG 07 1001 SLP305 T11121115 =
2019-12-08 05:00 METAR CWFQ 080500Z AUTO 17003KT M11/M12 RMK AO1 SOG 07 1005 SLP305 T11081122 =
2019-12-08 04:00 METAR CWFQ 080400Z AUTO 17003KT M11/M12 RMK AO1 SOG 07 1007 SLP305 T11101123 =
2019-12-08 03:00 METAR CWFQ 080300Z AUTO 19002KT M10/M12 RMK AO1 SOG 07 2008 SLP304 T11041118 =
2019-12-08 02:00 METAR CWFQ 080200Z AUTO 22003KT M09/M10 RMK AO1 SOG 08 1009 SLP300 T10871095 =
2019-12-08 01:00 METAR CWFQ 080100Z AUTO 21002KT M10/M11 RMK AO1 SOG 07 1011 SLP298 T10971113 =
2019-12-08 00:00 METAR CWFQ 080000Z AUTO 20002KT M10/M11 RMK AO1 SOG 07 1014 SLP296 T10991112 =
2019-12-07 23:00 METAR CWFQ 072300Z AUTO 26003KT M09/M11 RMK AO1 SOG 08 2015 SLP291 T10871107 =
2019-12-07 22:00 METAR CWFQ 072200Z AUTO 21001KT M10/M12 RMK AO1 SOG 08 3015 SLP287 T10981117 =
2019-12-07 21:00 METAR CWFQ 072100Z AUTO 27001KT M08/M11 RMK AO1 SOG 08 3013 SLP281 T10801106 =

Support USWX by starting your Amazon purchase here.